Time;durP1;ratioP1;P1;durP2;ratioP2;P2;SDS_P1;SDS_P2;PMS_P1;PMS_P2;Temp;Humidity;BMP_temperature;BMP_pressure;BME280_temperature;BME280_humidity;BME280_pressure;Samples;Min_cycle;Max_cycle;Signal;HPM_P1;HPM_P2
2021/09/25 00:00:34;;;;;;;31.95;15.07;;;9.50;99.90;;;;;;2093250;28;20113;-69
2021/09/25 00:01:34;;;;;;;36.80;15.95;;;9.50;99.90;;;;;;2088854;28;20049;-71
2021/09/25 00:02:35;;;;;;;32.90;14.45;;;9.50;99.90;;;;;;2101091;28;20381;-70
2021/09/25 00:03:36;;;;;;;29.92;14.23;;;9.40;99.90;;;;;;2099061;28;20404;-70
2021/09/25 00:04:37;;;;;;;30.88;14.45;;;9.50;99.90;;;;;;2092040;28;20023;-70
2021/09/25 00:05:39;;;;;;;33.25;15.77;;;9.50;99.90;;;;;;2093896;28;20024;-70
2021/09/25 00:06:40;;;;;;;31.15;16.20;;;9.40;99.90;;;;;;2092780;28;20401;-70
2021/09/25 00:07:41;;;;;;;31.88;16.13;;;9.40;99.90;;;;;;2088676;28;20056;-70
2021/09/25 00:08:41;;;;;;;32.88;17.10;;;9.40;99.90;;;;;;2096875;28;20558;-70
2021/09/25 00:09:43;;;;;;;31.50;17.13;;;9.40;99.90;;;;;;2098885;28;20032;-70
2021/09/25 00:10:43;;;;;;;33.30;17.23;;;9.40;99.90;;;;;;2092582;28;20017;-70
2021/09/25 00:11:44;;;;;;;34.03;16.85;;;9.30;99.90;;;;;;2101055;28;20023;-70
2021/09/25 00:12:45;;;;;;;31.27;16.75;;;9.30;99.90;;;;;;2092984;28;20025;-69
2021/09/25 00:13:46;;;;;;;29.55;16.10;;;9.20;99.90;;;;;;2085228;28;20032;-70
2021/09/25 00:14:46;;;;;;;32.05;16.33;;;9.20;99.90;;;;;;2083940;28;20602;-71
2021/09/25 00:15:47;;;;;;;34.78;18.33;;;9.20;99.90;;;;;;2089775;28;20102;-71
2021/09/25 00:16:48;;;;;;;32.38;17.05;;;9.20;99.90;;;;;;2093539;28;20104;-71
2021/09/25 00:17:49;;;;;;;36.60;17.48;;;9.20;99.90;;;;;;2091836;28;20543;-71
2021/09/25 00:18:49;;;;;;;36.28;18.02;;;9.20;99.90;;;;;;2097360;28;20392;-71
2021/09/25 00:19:50;;;;;;;34.00;18.33;;;9.20;99.90;;;;;;2097618;28;20013;-70
2021/09/25 00:20:51;;;;;;;33.53;17.65;;;9.20;99.90;;;;;;2088574;28;20358;-71
2021/09/25 00:21:51;;;;;;;34.83;16.98;;;9.20;99.90;;;;;;2091956;28;20027;-69
2021/09/25 00:22:53;;;;;;;36.65;17.15;;;9.20;99.90;;;;;;2100676;28;20016;-70
2021/09/25 00:23:54;;;;;;;32.80;17.75;;;9.10;99.90;;;;;;2094840;28;20021;-69
2021/09/25 00:24:54;;;;;;;38.60;16.65;;;9.10;99.90;;;;;;2086661;28;20038;-70
2021/09/25 00:25:55;;;;;;;35.47;17.20;;;9.20;99.90;;;;;;2081441;28;20784;-70
2021/09/25 00:26:56;;;;;;;36.60;17.08;;;9.10;99.90;;;;;;2084104;28;20830;-70
2021/09/25 00:27:57;;;;;;;30.90;16.48;;;9.10;99.90;;;;;;2092759;28;20029;-70
2021/09/25 00:28:58;;;;;;;35.15;16.02;;;9.10;99.90;;;;;;2093801;28;20025;-70
2021/09/25 00:29:58;;;;;;;28.02;17.15;;;9.20;99.90;;;;;;2086372;28;20020;-70
2021/09/25 00:30:59;;;;;;;37.10;18.08;;;9.10;99.90;;;;;;2081288;28;20120;-70
2021/09/25 00:32:01;;;;;;;29.02;15.05;;;9.10;99.90;;;;;;2090656;28;20024;-70
2021/09/25 00:33:02;;;;;;;33.17;16.00;;;9.10;99.90;;;;;;2085993;28;20032;-70
2021/09/25 00:34:03;;;;;;;33.28;16.95;;;9.10;99.90;;;;;;2085716;28;20464;-70
2021/09/25 00:35:04;;;;;;;32.05;16.13;;;9.10;99.90;;;;;;2086430;28;20039;-70
2021/09/25 00:36:05;;;;;;;31.35;16.02;;;9.10;99.90;;;;;;2088118;28;20020;-69
2021/09/25 00:37:06;;;;;;;30.10;16.35;;;9.10;99.90;;;;;;2088472;28;20032;-70
2021/09/25 00:38:06;;;;;;;31.70;15.30;;;9.10;99.90;;;;;;2086009;28;20105;-70
2021/09/25 00:39:07;;;;;;;32.72;16.38;;;9.10;99.90;;;;;;2086702;28;20033;-70
2021/09/25 00:40:11;;;;;;;30.88;15.98;;;9.10;99.90;;;;;;2094114;28;20029;-70
2021/09/25 00:41:11;;;;;;;24.17;14.65;;;9.10;99.90;;;;;;2089850;28;20053;-70
2021/09/25 00:42:12;;;;;;;21.05;12.32;;;9.10;99.90;;;;;;2094471;28;20701;-70
2021/09/25 00:43:13;;;;;;;21.65;11.07;;;9.20;99.90;;;;;;2079980;28;20073;-69
2021/09/25 00:44:13;;;;;;;19.45;10.00;;;9.20;99.90;;;;;;2088915;28;20104;-69
2021/09/25 00:45:18;;;;;;;15.48;9.10;;;9.20;99.90;;;;;;2086006;28;20074;-71
2021/09/25 00:46:20;;;;;;;19.58;10.00;;;9.20;99.90;;;;;;2093767;28;20017;-70
2021/09/25 00:47:21;;;;;;;;;;;9.20;99.90;;;;;;2089588;28;20065;-69
2021/09/25 00:48:22;;;;;;;20.83;10.73;;;9.20;99.90;;;;;;2089003;28;19905;-71
2021/09/25 00:49:22;;;;;;;23.13;11.30;;;9.20;99.90;;;;;;2085524;28;20111;-70
2021/09/25 00:50:26;;;;;;;23.23;11.70;;;9.10;99.90;;;;;;2085181;28;20031;-69
2021/09/25 00:51:27;;;;;;;19.13;11.13;;;9.10;99.90;;;;;;2082626;28;20077;-70
2021/09/25 00:52:28;;;;;;;22.55;12.23;;;9.10;99.90;;;;;;2097169;28;20025;-70
2021/09/25 00:53:28;;;;;;;21.88;11.73;;;9.20;99.90;;;;;;2088425;28;20071;-70
2021/09/25 00:54:29;;;;;;;24.27;11.98;;;9.20;99.90;;;;;;2097085;28;20052;-69
2021/09/25 00:55:30;;;;;;;23.42;11.82;;;9.10;99.90;;;;;;2086195;28;20051;-70
2021/09/25 00:56:31;;;;;;;14.65;10.15;;;9.20;99.90;;;;;;2081439;28;20052;-70
2021/09/25 00:57:33;;;;;;;14.88;9.85;;;9.20;99.90;;;;;;2080556;28;20030;-70
2021/09/25 00:58:35;;;;;;;13.60;8.85;;;9.20;99.90;;;;;;2084256;28;20056;-70
2021/09/25 00:59:37;;;;;;;17.52;9.15;;;9.20;99.90;;;;;;2095928;28;20016;-70
2021/09/25 01:00:38;;;;;;;16.95;8.88;;;9.20;99.90;;;;;;2086101;28;20037;-68
2021/09/25 01:01:39;;;;;;;17.85;9.60;;;9.20;99.90;;;;;;2095142;28;20059;-69
2021/09/25 01:02:40;;;;;;;16.15;9.07;;;9.20;99.90;;;;;;2088371;28;20025;-69
2021/09/25 01:03:41;;;;;;;18.52;9.43;;;9.20;99.90;;;;;;2088213;28;20096;-69
2021/09/25 01:04:41;;;;;;;15.18;8.35;;;9.20;99.90;;;;;;2091171;28;20070;-70
2021/09/25 01:05:45;;;;;;;15.15;8.35;;;9.20;99.90;;;;;;2083393;28;20018;-69
2021/09/25 01:06:46;;;;;;;16.10;8.27;;;9.20;99.90;;;;;;2102135;28;20032;-69
2021/09/25 01:07:48;;;;;;;11.95;8.63;;;9.10;99.90;;;;;;2097161;28;20029;-69
2021/09/25 01:08:49;;;;;;;16.27;9.20;;;9.10;99.90;;;;;;2085307;28;20024;-69
2021/09/25 01:09:50;;;;;;;14.95;8.43;;;9.10;99.90;;;;;;2088238;28;20045;-70
2021/09/25 01:10:54;;;;;;;15.55;8.27;;;9.10;99.90;;;;;;2088041;28;20017;-70
2021/09/25 01:11:56;;;;;;;16.65;9.05;;;9.10;99.90;;;;;;2086461;28;20021;-70
2021/09/25 01:12:56;;;;;;;13.15;7.88;;;9.10;99.90;;;;;;2088420;28;20839;-70
2021/09/25 01:13:57;;;;;;;18.80;9.07;;;9.10;99.90;;;;;;2088475;28;20033;-69
2021/09/25 01:14:58;;;;;;;15.98;8.80;;;9.20;99.90;;;;;;2088930;28;20063;-69
2021/09/25 01:15:59;;;;;;;18.65;9.05;;;9.30;99.90;;;;;;2083527;28;20031;-70
2021/09/25 01:17:08;;;;;;;17.48;9.18;;;9.30;99.90;;;;;;2086219;28;20047;-69
2021/09/25 01:18:09;;;;;;;19.40;7.85;;;9.30;99.90;;;;;;2094214;28;20017;-69
2021/09/25 01:19:09;;;;;;;15.98;8.02;;;9.20;99.90;;;;;;2092206;28;20045;-70
2021/09/25 01:20:11;;;;;;;14.07;8.35;;;9.20;99.90;;;;;;2094329;28;20032;-69
2021/09/25 01:21:12;;;;;;;12.43;8.60;;;9.40;99.90;;;;;;2082548;28;20053;-69
2021/09/25 01:22:13;;;;;;;11.93;8.13;;;9.40;99.90;;;;;;2087329;28;20070;-69
2021/09/25 01:23:14;;;;;;;12.07;7.95;;;9.40;99.90;;;;;;2076479;28;20052;-69
2021/09/25 01:24:15;;;;;;;13.32;7.50;;;9.40;99.90;;;;;;2083994;28;20118;-69
2021/09/25 01:25:16;;;;;;;12.88;8.15;;;9.30;99.90;;;;;;2079461;28;20082;-69
2021/09/25 01:26:17;;;;;;;13.65;8.02;;;9.20;99.90;;;;;;2090736;28;20025;-69
2021/09/25 01:27:17;;;;;;;11.82;8.50;;;9.20;99.90;;;;;;2082275;28;20040;-69
2021/09/25 01:28:18;;;;;;;14.73;8.80;;;9.10;99.90;;;;;;2086826;28;20029;-69
2021/09/25 01:29:19;;;;;;;17.83;9.10;;;9.10;99.90;;;;;;2082683;28;20097;-69
2021/09/25 01:30:21;;;;;;;12.23;8.65;;;9.10;99.90;;;;;;2087975;28;20025;-69
2021/09/25 01:31:21;;;;;;;14.52;8.07;;;9.00;99.90;;;;;;2089347;28;20021;-69
2021/09/25 01:32:22;;;;;;;17.67;8.65;;;9.00;99.90;;;;;;2091079;28;20064;-69
2021/09/25 01:33:33;;;;;;;16.15;8.70;;;9.00;99.90;;;;;;2090211;28;20035;-69
2021/09/25 01:34:35;;;;;;;14.10;8.07;;;9.00;99.90;;;;;;2085196;28;20032;-69
2021/09/25 01:35:35;;;;;;;13.98;7.97;;;8.90;99.90;;;;;;2088530;28;20025;-69
2021/09/25 01:36:37;;;;;;;18.33;8.60;;;8.90;99.90;;;;;;2087142;28;20124;-69
2021/09/25 01:37:37;;;;;;;14.75;8.68;;;8.90;99.90;;;;;;2088300;28;20074;-69
2021/09/25 01:38:40;;;;;;;11.73;8.07;;;8.90;99.90;;;;;;2083862;28;20108;-69
2021/09/25 01:39:41;;;;;;;10.88;8.00;;;8.90;99.90;;;;;;2087732;28;20075;-69
2021/09/25 01:40:42;;;;;;;17.30;9.18;;;8.90;99.90;;;;;;2087826;28;20061;-69
2021/09/25 01:41:42;;;;;;;12.88;7.90;;;8.90;99.90;;;;;;2084278;28;20060;-69
2021/09/25 01:42:44;;;;;;;14.85;8.35;;;8.90;99.90;;;;;;2090546;28;20024;-69
2021/09/25 01:43:45;;;;;;;15.07;8.77;;;8.90;99.90;;;;;;2086582;28;20104;-69
2021/09/25 01:44:48;;;;;;;14.95;8.18;;;8.90;99.90;;;;;;2091297;28;20028;-69
2021/09/25 01:45:49;;;;;;;17.98;9.00;;;8.90;99.90;;;;;;2089723;28;20024;-68
2021/09/25 01:46:50;;;;;;;15.15;9.55;;;9.00;99.90;;;;;;2085017;28;20548;-69
2021/09/25 01:47:51;;;;;;;12.85;8.55;;;9.00;99.90;;;;;;2089188;28;20017;-69
2021/09/25 01:48:51;;;;;;;15.63;9.57;;;9.00;99.90;;;;;;2088610;28;20017;-69
2021/09/25 01:49:52;;;;;;;14.60;8.90;;;9.00;99.90;;;;;;2090199;28;20029;-70
2021/09/25 01:50:53;;;;;;;16.67;8.70;;;9.10;99.90;;;;;;2085469;28;20483;-69
2021/09/25 01:51:54;;;;;;;15.60;9.20;;;9.10;99.90;;;;;;2087118;28;20038;-70
2021/09/25 01:52:54;;;;;;;15.10;9.32;;;9.20;99.90;;;;;;2086475;28;20575;-69
2021/09/25 01:53:55;;;;;;;14.20;8.55;;;9.20;99.90;;;;;;2083628;28;20032;-69
2021/09/25 01:54:56;;;;;;;15.75;8.75;;;9.20;99.90;;;;;;2083584;28;20039;-70
2021/09/25 01:55:57;;;;;;;13.00;8.80;;;9.20;99.90;;;;;;2085508;28;20037;-69
2021/09/25 01:56:57;;;;;;;14.80;8.60;;;9.10;99.90;;;;;;2085310;28;20507;-69
2021/09/25 01:57:58;;;;;;;16.77;8.85;;;9.10;99.90;;;;;;2092569;28;20025;-69
2021/09/25 01:58:59;;;;;;;15.40;8.55;;;9.10;99.90;;;;;;2088292;28;20029;-68
2021/09/25 02:00:00;;;;;;;13.15;8.85;;;9.10;99.90;;;;;;2084362;28;20033;-69
2021/09/25 02:01:01;;;;;;;17.05;9.00;;;9.10;99.90;;;;;;2090793;28;20098;-69
2021/09/25 02:02:02;;;;;;;16.92;9.73;;;9.00;99.90;;;;;;2087591;28;20485;-69
2021/09/25 02:03:06;;;;;;;15.60;10.13;;;9.00;99.90;;;;;;2083535;28;20022;-69
2021/09/25 02:04:07;;;;;;;14.45;9.20;;;9.00;99.90;;;;;;2093583;28;20119;-69
2021/09/25 02:05:08;;;;;;;15.13;9.05;;;9.00;99.90;;;;;;2088777;28;20009;-68
2021/09/25 02:06:10;;;;;;;17.30;9.48;;;9.00;99.90;;;;;;2086533;28;20403;-69
2021/09/25 02:07:11;;;;;;;;;;;9.00;99.90;;;;;;2080966;28;20025;-68
2021/09/25 02:08:11;;;;;;;15.68;9.10;;;9.00;99.90;;;;;;2080899;28;19905;-69
2021/09/25 02:09:12;;;;;;;17.00;9.70;;;9.00;99.90;;;;;;2081242;28;20110;-69
2021/09/25 02:10:13;;;;;;;16.95;9.75;;;9.00;99.90;;;;;;2087152;28;20045;-69
2021/09/25 02:11:14;;;;;;;16.05;9.82;;;9.00;99.90;;;;;;2085078;28;20032;-69
2021/09/25 02:12:14;;;;;;;15.95;9.77;;;9.00;99.90;;;;;;2085282;28;20048;-69
2021/09/25 02:13:16;;;;;;;19.92;10.13;;;9.00;99.90;;;;;;2087193;28;20017;-69
2021/09/25 02:14:16;;;;;;;19.55;10.27;;;9.10;99.90;;;;;;2089357;28;20103;-68
2021/09/25 02:15:17;;;;;;;18.10;10.20;;;9.10;99.90;;;;;;2083342;28;20398;-69
2021/09/25 02:16:18;;;;;;;15.50;10.13;;;9.10;99.90;;;;;;2091741;28;20069;-68
2021/09/25 02:17:21;;;;;;;19.27;10.15;;;9.10;99.90;;;;;;2084232;28;20051;-68
2021/09/25 02:18:22;;;;;;;18.15;9.27;;;9.10;99.90;;;;;;2090272;28;20040;-68
2021/09/25 02:19:23;;;;;;;17.15;9.73;;;9.10;99.90;;;;;;2084715;28;20028;-68
2021/09/25 02:20:24;;;;;;;14.30;9.52;;;9.10;99.90;;;;;;2084393;28;20447;-69
2021/09/25 02:21:25;;;;;;;17.88;8.65;;;9.10;99.90;;;;;;2093145;28;20036;-69
2021/09/25 02:22:26;;;;;;;17.83;11.02;;;9.10;99.90;;;;;;2090742;28;20021;-68
2021/09/25 02:23:27;;;;;;;18.75;10.15;;;9.10;99.90;;;;;;2083612;28;20025;-69
2021/09/25 02:24:27;;;;;;;20.52;11.10;;;9.00;99.90;;;;;;2087473;28;20116;-69
2021/09/25 02:25:28;;;;;;;17.95;11.27;;;9.00;99.90;;;;;;2083486;28;20472;-68
2021/09/25 02:26:28;;;;;;;28.70;12.32;;;9.00;99.90;;;;;;2083699;28;20037;-68
2021/09/25 02:27:29;;;;;;;19.25;11.15;;;9.00;99.90;;;;;;2085688;28;20613;-68
2021/09/25 02:28:30;;;;;;;25.52;12.23;;;9.00;99.90;;;;;;2083868;28;20483;-68
2021/09/25 02:29:31;;;;;;;22.17;13.52;;;9.00;99.90;;;;;;2088466;28;20025;-68
2021/09/25 02:30:32;;;;;;;21.45;12.43;;;9.10;99.90;;;;;;2087750;28;20101;-68
2021/09/25 02:31:32;;;;;;;24.55;13.35;;;9.00;99.90;;;;;;2088014;28;20508;-68
2021/09/25 02:32:33;;;;;;;26.13;14.25;;;9.00;99.90;;;;;;2084803;28;20020;-68
2021/09/25 02:33:34;;;;;;;23.70;12.30;;;9.00;99.90;;;;;;2085881;28;20036;-68
2021/09/25 02:34:36;;;;;;;23.40;12.65;;;9.00;99.90;;;;;;2081293;28;20018;-68
2021/09/25 02:35:37;;;;;;;27.48;12.10;;;9.00;99.90;;;;;;2088014;28;20032;-68
2021/09/25 02:36:38;;;;;;;22.15;12.73;;;8.90;99.90;;;;;;2092054;28;20025;-68
2021/09/25 02:37:40;;;;;;;25.02;13.63;;;8.90;99.90;;;;;;2095474;28;20013;-68
2021/09/25 02:38:41;;;;;;;27.25;14.27;;;8.90;99.90;;;;;;2084664;28;20100;-68
2021/09/25 02:39:41;;;;;;;27.67;14.70;;;8.90;99.90;;;;;;2081703;28;20029;-68
2021/09/25 02:40:43;;;;;;;24.25;14.45;;;8.90;99.90;;;;;;2088010;28;20020;-68
2021/09/25 02:41:44;;;;;;;31.38;15.10;;;8.90;99.90;;;;;;2087085;28;20071;-68
2021/09/25 02:42:45;;;;;;;27.73;15.85;;;8.90;99.90;;;;;;2095568;28;20076;-68
2021/09/25 02:43:46;;;;;;;25.38;15.00;;;8.90;99.90;;;;;;2088217;28;20029;-69
2021/09/25 02:44:46;;;;;;;27.48;15.20;;;8.90;99.90;;;;;;2080610;28;20459;-69
2021/09/25 02:45:47;;;;;;;26.75;14.75;;;8.90;99.90;;;;;;2085609;28;20017;-68
2021/09/25 02:46:48;;;;;;;26.77;14.75;;;8.80;99.90;;;;;;2093103;28;20020;-68
2021/09/25 02:47:49;;;;;;;30.55;14.60;;;8.80;99.90;;;;;;2093235;28;20017;-68
2021/09/25 02:48:50;;;;;;;32.70;16.23;;;8.80;99.90;;;;;;2086648;28;20066;-68
2021/09/25 02:49:51;;;;;;;31.60;16.05;;;8.80;99.90;;;;;;2087375;28;20028;-68
2021/09/25 02:50:51;;;;;;;29.48;16.58;;;8.90;99.90;;;;;;2083412;28;20092;-68
2021/09/25 02:51:52;;;;;;;32.67;16.67;;;8.80;99.90;;;;;;2082150;28;20369;-68
2021/09/25 02:52:53;;;;;;;29.63;16.83;;;8.80;99.90;;;;;;2085719;28;20017;-69
2021/09/25 02:53:53;;;;;;;30.38;16.30;;;8.80;99.90;;;;;;2089032;28;20116;-69
2021/09/25 02:54:54;;;;;;;34.22;16.02;;;8.80;99.90;;;;;;2090163;28;20491;-68
2021/09/25 02:55:55;;;;;;;33.50;16.42;;;8.80;99.90;;;;;;2089197;28;20523;-68
2021/09/25 02:56:56;;;;;;;34.88;16.67;;;8.80;99.90;;;;;;2087594;28;20023;-69
2021/09/25 02:57:56;;;;;;;28.52;15.15;;;8.70;99.90;;;;;;2088222;28;20116;-68
2021/09/25 02:58:57;;;;;;;31.77;16.50;;;8.80;99.90;;;;;;2089427;28;20103;-68
2021/09/25 02:59:58;;;;;;;25.83;15.45;;;8.70;99.90;;;;;;2092211;28;20082;-69
2021/09/25 03:00:58;;;;;;;35.65;16.85;;;8.70;99.90;;;;;;2081258;28;20060;-68
2021/09/25 03:01:59;;;;;;;32.65;15.70;;;8.80;99.90;;;;;;2083645;28;20067;-68
2021/09/25 03:03:01;;;;;;;32.80;16.17;;;8.70;99.90;;;;;;2087080;28;20057;-68
2021/09/25 03:04:01;;;;;;;28.50;15.23;;;8.70;99.90;;;;;;2081469;28;20025;-68
2021/09/25 03:05:03;;;;;;;33.97;15.75;;;8.70;99.90;;;;;;2088970;28;20057;-68
2021/09/25 03:06:04;;;;;;;37.58;17.92;;;8.70;99.90;;;;;;2085090;28;20083;-68
2021/09/25 03:07:04;;;;;;;45.42;21.73;;;8.70;99.90;;;;;;2084228;28;20485;-68
2021/09/25 03:08:05;;;;;;;51.90;23.75;;;8.70;99.90;;;;;;2085261;28;20721;-68
2021/09/25 03:09:06;;;;;;;45.90;23.73;;;8.70;99.90;;;;;;2087972;28;20052;-68
2021/09/25 03:10:08;;;;;;;51.80;23.60;;;8.80;99.90;;;;;;2079994;28;20025;-69
2021/09/25 03:11:08;;;;;;;51.10;24.23;;;8.80;99.90;;;;;;2085404;28;20074;-68
2021/09/25 03:12:09;;;;;;;47.70;23.73;;;8.80;99.90;;;;;;2083982;28;20091;-68
2021/09/25 03:13:10;;;;;;;43.58;20.83;;;8.80;99.90;;;;;;2092074;28;20029;-68
2021/09/25 03:14:10;;;;;;;48.15;21.15;;;8.80;99.90;;;;;;2089373;28;20049;-68
2021/09/25 03:15:12;;;;;;;50.28;22.17;;;8.80;99.90;;;;;;2092780;28;20130;-68
2021/09/25 03:16:13;;;;;;;40.88;21.58;;;8.80;99.90;;;;;;2087793;28;20079;-68
2021/09/25 03:17:14;;;;;;;44.50;22.75;;;8.80;99.90;;;;;;2083502;28;20748;-68
2021/09/25 03:18:15;;;;;;;52.67;23.20;;;8.70;99.90;;;;;;2083893;28;20033;-69
2021/09/25 03:19:15;;;;;;;43.85;21.98;;;8.70;99.90;;;;;;2087799;28;20380;-68
2021/09/25 03:20:17;;;;;;;47.10;22.00;;;8.70;99.90;;;;;;2082125;28;20113;-68
2021/09/25 03:21:17;;;;;;;45.17;21.67;;;8.70;99.90;;;;;;2085715;28;20033;-69
2021/09/25 03:22:18;;;;;;;49.38;22.05;;;8.70;99.90;;;;;;2083039;28;20032;-68
2021/09/25 03:23:19;;;;;;;44.15;21.20;;;8.70;99.90;;;;;;2095354;28;20019;-68
2021/09/25 03:24:19;;;;;;;43.63;22.33;;;8.70;99.90;;;;;;2082401;28;20448;-68
2021/09/25 03:25:20;;;;;;;38.55;20.48;;;8.60;99.90;;;;;;2093522;28;20104;-68
2021/09/25 03:26:21;;;;;;;38.70;19.75;;;8.60;99.90;;;;;;2095331;28;20052;-68
2021/09/25 03:27:24;;;;;;;39.53;19.38;;;8.60;99.90;;;;;;2081524;28;20017;-68
2021/09/25 03:28:25;;;;;;;40.30;18.58;;;8.60;99.90;;;;;;2082887;28;20051;-68
2021/09/25 03:29:25;;;;;;;31.05;16.25;;;8.60;99.90;;;;;;2080812;28;20018;-69
2021/09/25 03:30:26;;;;;;;39.50;17.77;;;8.50;99.90;;;;;;2079190;28;20041;-68
2021/09/25 03:31:27;;;;;;;35.40;16.90;;;8.50;99.90;;;;;;2085768;28;20425;-68
2021/09/25 03:32:27;;;;;;;30.25;15.50;;;8.50;99.90;;;;;;2083649;28;20056;-69
2021/09/25 03:33:28;;;;;;;32.60;15.02;;;8.40;99.90;;;;;;2087269;28;20663;-69
2021/09/25 03:34:29;;;;;;;28.58;14.93;;;8.50;99.90;;;;;;2081502;28;20029;-69
2021/09/25 03:35:30;;;;;;;26.77;14.63;;;8.40;99.90;;;;;;2094814;28;20071;-68
2021/09/25 03:36:31;;;;;;;25.38;13.73;;;8.40;99.90;;;;;;2091998;28;20025;-68
2021/09/25 03:37:32;;;;;;;28.38;12.50;;;8.40;99.90;;;;;;2096069;28;20487;-68
2021/09/25 03:38:32;;;;;;;26.17;13.63;;;8.40;99.90;;;;;;2085051;28;20029;-68
2021/09/25 03:39:33;;;;;;;23.55;13.60;;;8.30;99.90;;;;;;2082667;28;20025;-68
2021/09/25 03:40:34;;;;;;;28.10;12.77;;;8.40;99.90;;;;;;2081273;28;20033;-68
2021/09/25 03:41:35;;;;;;;20.08;11.90;;;8.40;99.90;;;;;;2083804;28;20021;-70
2021/09/25 03:42:36;;;;;;;26.60;12.60;;;8.40;99.90;;;;;;2089381;28;20017;-68
2021/09/25 03:43:36;;;;;;;23.25;11.70;;;8.40;99.90;;;;;;2084772;28;20507;-68
2021/09/25 03:44:37;;;;;;;18.88;11.55;;;8.40;99.90;;;;;;2084392;28;20041;-68
2021/09/25 03:45:38;;;;;;;23.83;12.30;;;8.40;99.90;;;;;;2087419;28;20025;-68
2021/09/25 03:46:38;;;;;;;21.05;12.32;;;8.40;99.90;;;;;;2091076;28;20056;-68
2021/09/25 03:47:39;;;;;;;31.70;13.40;;;8.40;99.90;;;;;;2090016;28;20092;-68
2021/09/25 03:48:40;;;;;;;35.70;16.60;;;8.40;99.90;;;;;;2087463;28;20021;-67
2021/09/25 03:49:41;;;;;;;38.30;17.75;;;8.40;99.90;;;;;;2093530;28;20088;-68
2021/09/25 03:50:42;;;;;;;35.08;16.90;;;8.40;99.90;;;;;;2088760;28;20555;-68
2021/09/25 03:51:42;;;;;;;37.65;18.45;;;8.40;99.90;;;;;;2086039;28;20113;-68
2021/09/25 03:52:43;;;;;;;38.05;18.63;;;8.40;99.90;;;;;;2088650;28;20566;-68
2021/09/25 03:53:44;;;;;;;43.33;18.75;;;8.40;99.90;;;;;;2090591;28;20636;-68
2021/09/25 03:54:45;;;;;;;42.67;19.80;;;8.30;99.90;;;;;;2095650;28;20431;-68
2021/09/25 03:55:45;;;;;;;43.30;19.60;;;8.40;99.90;;;;;;2083899;28;20025;-68
2021/09/25 03:56:46;;;;;;;42.83;18.83;;;8.30;99.90;;;;;;2091052;28;20567;-69
2021/09/25 03:57:47;;;;;;;40.63;19.75;;;8.30;99.90;;;;;;2097733;28;20453;-68
2021/09/25 03:58:47;;;;;;;43.15;19.95;;;8.30;99.90;;;;;;2081292;28;20087;-68
2021/09/25 03:59:48;;;;;;;36.85;18.75;;;8.20;99.90;;;;;;2087451;28;20504;-68
2021/09/25 04:00:49;;;;;;;50.65;22.65;;;8.20;99.90;;;;;;2089014;28;20090;-67
2021/09/25 04:01:49;;;;;;;46.65;20.25;;;8.20;99.90;;;;;;2086361;28;20013;-68
2021/09/25 04:02:51;;;;;;;52.83;22.75;;;8.20;99.90;;;;;;2087231;28;20073;-69
2021/09/25 04:03:53;;;;;;;41.97;21.88;;;8.20;99.90;;;;;;2088153;28;20013;-68
2021/09/25 04:04:54;;;;;;;48.05;22.55;;;8.20;99.90;;;;;;2086591;28;20032;-68
2021/09/25 04:05:56;;;;;;;43.80;21.08;;;8.20;99.90;;;;;;2088606;28;20042;-67
2021/09/25 04:06:58;;;;;;;44.00;20.05;;;8.10;99.90;;;;;;2092856;28;20029;-68
2021/09/25 04:07:59;;;;;;;51.38;20.63;;;8.10;99.90;;;;;;2093988;28;20020;-68
2021/09/25 04:08:59;;;;;;;38.47;19.38;;;8.10;99.90;;;;;;2089051;28;20116;-69
2021/09/25 04:10:00;;;;;;;36.72;16.75;;;8.10;99.90;;;;;;2087659;28;20017;-68
2021/09/25 04:11:01;;;;;;;32.25;16.13;;;8.20;99.90;;;;;;2085635;28;20635;-68
2021/09/25 04:12:02;;;;;;;31.48;16.33;;;8.20;99.90;;;;;;2090415;28;20037;-68
2021/09/25 04:13:02;;;;;;;24.00;14.23;;;8.20;99.90;;;;;;2089249;28;20029;-68
2021/09/25 04:14:03;;;;;;;31.20;14.30;;;8.20;99.90;;;;;;2085898;28;20052;-68
2021/09/25 04:15:06;;;;;;;28.90;13.60;;;8.20;99.90;;;;;;2087807;28;20400;-68
2021/09/25 04:16:06;;;;;;;24.30;13.30;;;8.20;99.90;;;;;;2092451;28;20079;-68
2021/09/25 04:17:07;;;;;;;23.13;11.75;;;8.30;99.90;;;;;;2093932;28;20025;-68
2021/09/25 04:18:11;;;;;;;27.70;12.55;;;8.30;99.90;;;;;;2089414;28;20473;-68
2021/09/25 04:19:12;;;;;;;22.08;11.63;;;8.30;99.90;;;;;;2088734;28;20428;-68
2021/09/25 04:20:12;;;;;;;21.45;11.77;;;8.30;99.90;;;;;;2093894;28;20028;-67
2021/09/25 04:21:15;;;;;;;23.02;11.77;;;8.30;99.90;;;;;;2085798;28;20032;-67
2021/09/25 04:22:16;;;;;;;24.33;12.55;;;8.30;99.90;;;;;;2091634;28;20156;-67
2021/09/25 04:23:17;;;;;;;25.08;12.90;;;8.30;99.90;;;;;;2088957;28;20037;-68
2021/09/25 04:24:17;;;;;;;32.10;13.20;;;8.30;99.90;;;;;;2082848;28;20025;-68
2021/09/25 04:25:19;;;;;;;43.35;17.15;;;8.20;99.90;;;;;;2087529;28;20060;-67
2021/09/25 04:26:20;;;;;;;37.22;17.15;;;8.20;99.90;;;;;;2096742;28;20013;-68
2021/09/25 04:27:21;;;;;;;38.33;18.00;;;8.20;99.90;;;;;;2093780;28;20078;-68
2021/09/25 04:28:22;;;;;;;34.42;16.05;;;8.20;99.90;;;;;;2087692;28;20027;-67
2021/09/25 04:29:22;;;;;;;38.42;16.92;;;8.20;99.90;;;;;;2081137;28;20048;-67
2021/09/25 04:30:23;;;;;;;35.08;15.18;;;8.20;99.90;;;;;;2089668;28;20096;-68
2021/09/25 04:31:24;;;;;;;28.77;15.93;;;8.20;99.90;;;;;;2082088;28;20108;-68
2021/09/25 04:32:26;;;;;;;32.85;14.43;;;8.20;99.90;;;;;;2083759;28;20025;-68
2021/09/25 04:33:27;;;;;;;25.90;13.20;;;8.20;99.90;;;;;;2085287;28;20124;-67
2021/09/25 04:34:29;;;;;;;24.25;13.50;;;8.20;99.90;;;;;;2083606;28;20711;-68
2021/09/25 04:35:29;;;;;;;;;;;8.20;99.90;;;;;;2093011;28;20052;-67
2021/09/25 04:36:31;;;;;;;27.05;11.80;;;8.20;99.90;;;;;;2085367;28;19909;-68
2021/09/25 04:37:32;;;;;;;24.65;11.43;;;8.20;99.90;;;;;;2089515;28;20047;-67
2021/09/25 04:38:33;;;;;;;19.45;10.32;;;8.20;99.90;;;;;;2089075;28;20032;-67
2021/09/25 04:39:33;;;;;;;21.90;11.20;;;8.20;99.90;;;;;;2089466;28;20439;-67
2021/09/25 04:40:34;;;;;;;23.05;11.65;;;8.20;99.90;;;;;;2095891;28;20027;-68
2021/09/25 04:41:35;;;;;;;26.40;12.77;;;8.20;99.90;;;;;;2086375;28;20048;-67
2021/09/25 04:42:36;;;;;;;31.55;13.25;;;8.20;99.90;;;;;;2097496;28;20012;-68
2021/09/25 04:43:37;;;;;;;30.35;12.80;;;8.10;99.90;;;;;;2085390;28;20059;-68
2021/09/25 04:44:38;;;;;;;30.05;13.35;;;8.10;99.90;;;;;;2087590;28;20021;-68
2021/09/25 04:45:38;;;;;;;30.02;13.40;;;8.10;99.90;;;;;;2086684;28;20628;-68
2021/09/25 04:46:39;;;;;;;24.85;12.05;;;8.10;99.90;;;;;;2087057;28;20056;-68
2021/09/25 04:47:41;;;;;;;33.13;13.70;;;8.10;99.90;;;;;;2094483;28;20099;-68
2021/09/25 04:48:42;;;;;;;26.15;13.30;;;8.10;99.90;;;;;;2089041;28;20021;-68
2021/09/25 04:49:42;;;;;;;25.50;13.23;;;8.10;99.90;;;;;;2092160;28;20017;-67
2021/09/25 04:50:43;;;;;;;21.40;11.85;;;8.10;99.90;;;;;;2091720;28;20017;-68
2021/09/25 04:51:44;;;;;;;30.35;13.07;;;8.10;99.90;;;;;;2092880;28;20573;-68
2021/09/25 04:52:45;;;;;;;26.48;11.50;;;8.10;99.90;;;;;;2091936;28;20070;-68
2021/09/25 04:53:46;;;;;;;26.30;12.27;;;8.10;99.90;;;;;;2083269;28;20030;-68
2021/09/25 04:54:47;;;;;;;29.95;12.60;;;8.00;99.90;;;;;;2087250;28;20043;-68
2021/09/25 04:55:47;;;;;;;28.73;12.25;;;8.00;99.90;;;;;;2088717;28;20676;-68
2021/09/25 04:56:48;;;;;;;24.50;13.07;;;8.00;99.90;;;;;;2091908;28;20027;-68
2021/09/25 04:57:49;;;;;;;28.58;14.05;;;8.00;99.90;;;;;;2094133;28;20035;-67
2021/09/25 04:58:49;;;;;;;28.42;13.15;;;8.00;99.90;;;;;;2082678;28;20052;-68
2021/09/25 04:59:50;;;;;;;34.25;13.82;;;8.00;99.90;;;;;;2088642;28;20078;-68
2021/09/25 05:00:51;;;;;;;33.58;14.77;;;8.00;99.90;;;;;;2089019;28;20472;-68
2021/09/25 05:01:51;;;;;;;33.90;15.05;;;8.00;99.90;;;;;;2088638;28;20017;-68
2021/09/25 05:02:52;;;;;;;32.65;15.02;;;8.00;99.90;;;;;;2091686;28;20013;-68
2021/09/25 05:03:53;;;;;;;25.15;14.23;;;8.00;99.90;;;;;;2085606;28;20400;-68
2021/09/25 05:04:53;;;;;;;31.70;14.13;;;7.90;99.90;;;;;;2084426;28;20089;-68
2021/09/25 05:05:54;;;;;;;33.35;15.57;;;7.90;99.90;;;;;;2081685;28;20033;-68
2021/09/25 05:06:55;;;;;;;28.77;14.27;;;8.00;99.90;;;;;;2085998;28;20048;-68
2021/09/25 05:07:55;;;;;;;28.27;14.63;;;7.90;99.90;;;;;;2084133;28;20021;-68
2021/09/25 05:08:57;;;;;;;29.35;14.80;;;8.00;99.90;;;;;;2082221;28;20763;-68
2021/09/25 05:09:58;;;;;;;27.98;13.82;;;8.00;99.90;;;;;;2086600;28;20029;-68
2021/09/25 05:10:59;;;;;;;28.20;13.52;;;8.00;99.90;;;;;;2088744;28;20695;-68
2021/09/25 05:12:00;;;;;;;28.17;13.00;;;8.00;99.90;;;;;;2088524;28;20528;-67
2021/09/25 05:13:00;;;;;;;25.10;12.82;;;8.00;99.90;;;;;;2089467;28;20034;-68
2021/09/25 05:14:01;;;;;;;21.35;11.80;;;8.10;99.90;;;;;;2079561;28;20128;-67
2021/09/25 05:15:03;;;;;;;23.50;11.18;;;8.10;99.90;;;;;;2090782;28;20412;-67